METAR stanice u blizini

 

LYBE - Beograd / Surčin, Srbija
Ažurirano: 23/09/2020 11:30
Vedro
Vedro
 Pravac vetra JJZ
Vetar: JJZ 13 km/h
Temperatura: 27°C
Heat Index: 27°C
Tačka rose: 13°C
Vlažnost: 42%
Pritisak: 1011 hPa
Pregled: Vedro
Vidljivost: greater than 10 km
2020/09/23 09:30 LYBE 230930Z 20007KT 160V250 CAVOK 27/13 Q1011 NOSIG
LYBT - Beograd / Batajnica, Srbija
Ažurirano: 23/09/2020 11:30
Vedro
Vedro
 Pravac vetra JJI
Vetar: JJI 11 km/h
Temperatura: 26°C
Tačka rose: 12°C
Vlažnost: 42%
Pritisak: 1011 hPa
Pregled: Vedro
Vidljivost: greater than 10 km
2020/09/23 09:30 LYBT 230930Z 16006KT 120V200 CAVOK 26/12 Q1011 NOSIG
LYVR - Vršac, Srbija
Ažurirano: 23/09/2020 11:30
Vedro
Vedro
 Pravac vetra JJI
Vetar: JJI 35 km/h, Maks.: 54 km/h
Temperatura: 25°C
Tačka rose: 11°C
Vlažnost: 42%
Pritisak: 1012 hPa
Pregled: Vedro
Vidljivost: greater than 10 km
2020/09/23 09:30 LYVR 230930Z 16019G29KT CAVOK 25/11 Q1012 NOSIG
 
LYKV - Lađevci, Srbija
Ažurirano: 23/09/2020 11:30
Partly Cloudy
Partly Cloudy
 Pravac vetra J
Vetar: J 6 km/h
Temperatura: 22°C
Tačka rose: 15°C
Vlažnost: 65%
Pritisak: 1013 hPa
Oblaci: Partly Cloudy
Vidljivost: 10 km
Cloud details: Partly Cloudy 1006 m
2020/09/23 09:30 LYKV 230930Z 18003KT 100V260 9999 SCT033 22/15 Q1013 NOSIG
LYNI - Niš, Srbija
Ažurirano: 23/09/2020 11:30
Vedro
Vedro
 Pravac vetra JJI
Vetar: JJI 11 km/h
Temperatura: 23°C
Tačka rose: 13°C
Vlažnost: 53%
Pritisak: 1015 hPa
Pregled: Vedro
Vidljivost: greater than 10 km
2020/09/23 09:30 LYNI 230930Z 16006KT 120V210 CAVOK 23/13 Q1015 NOSIG
BKPR - Priština, Srbija
Ažurirano: 23/09/2020 11:30
Mostly Cloudy
Mostly Cloudy
 Pravac vetra varies
Vetar: varies 6 km/h
Temperatura: 19°C
Tačka rose: 13°C
Vlažnost: 68%
Pritisak: 1017 hPa
Oblaci: Mostly Cloudy
Vidljivost: 10 km
Cloud details: Partly Cloudy 914 m
Mostly Cloudy 2134 m
2020/09/23 09:30 BKPR 230930Z VRB03KT 9999 SCT030 BKN070 19/13 Q1017 NOSIG
 
LHPP - Pecs / Pogany, Hungary
Ažurirano: 23/09/2020 11:15
Vedro
Vedro
 Pravac vetra Z
Vetar: Z 4 km/h
Temperatura: 23°C
Tačka rose: 14°C
Vlažnost: 57%
Pritisak: 1011 hPa
Pregled: Vedro
Vidljivost: greater than 10 km
2020/09/23 09:15 LHPP 230915Z 26002KT CAVOK 23/14 Q1011
LHUD - Szeged, Hungary
Ažurirano: 04/07/2019 01:45
NOT Current
Vedro
Vedro
 Pravac vetra S
Vetar: S 7 km/h
Temperatura: 18°C
Tačka rose: 13°C
Vlažnost: 73%
Pritisak: 1019 hPa
Pregled: Vedro
Vidljivost: greater than 10 km
2019/07/03 23:45 LHUD 032345Z 35004KT CAVOK 18/13 Q1019
LRTR - Timisoara, Romania
Ažurirano: 23/09/2020 11:30
Vedro
Vedro
 Pravac vetra J
Vetar: J 28 km/h
Temperatura: 27°C
Tačka rose: 10°C
Vlažnost: 34%
Pritisak: 1011 hPa
Pregled: Vedro
Vidljivost: greater than 10 km
2020/09/23 09:30 LRTR 230930Z 19015KT 150V210 CAVOK 27/10 Q1011
 
LRCV - Craiova, Romania
Ažurirano: 23/09/2020 11:30
Vedro
Vedro
 Pravac vetra I
Vetar: I 11 km/h
Temperatura: 22°C
Tačka rose: 10°C
Vlažnost: 47%
Pritisak: 1014 hPa
Pregled: Vedro
Vidljivost: greater than 10 km
2020/09/23 09:30 LRCV 230930Z 09006KT 050V110 CAVOK 22/10 Q1014
LBSF - Sofia, Bulgaria
Ažurirano: 23/09/2020 11:30
Mostly Cloudy
Mostly Cloudy
 Pravac vetra varies
Vetar: varies 6 km/h
Temperatura: 19°C
Tačka rose: 10°C
Vlažnost: 56%
Pritisak: 1017 hPa
Oblaci: Mostly Cloudy
Vidljivost: 10 km
Cloud details: Few Clouds 1859 m
Mostly Cloudy 2256 m
2020/09/23 09:30 LBSF 230930Z VRB03KT 9999 FEW061 BKN074 19/10 Q1017 NOSIG
LWSK - Skoplje, Makedonija
Ažurirano: 23/09/2020 11:30
Partly Cloudy
Partly Cloudy
 Pravac vetra ZSZ
Vetar: ZSZ 6 km/h
Temperatura: 20°C
Tačka rose: 16°C
Vlažnost: 78%
Pritisak: 1017 hPa
Oblaci: Partly Cloudy
Vidljivost: 10 km
Cloud details: Few Clouds 701 m
Partly Cloudy 3048 m
2020/09/23 09:30 LWSK 230930Z 30003KT 9999 FEW023 SCT100 20/16 Q1017 NOSIG
 
LYPG - Podgorica, Crna Gora
Ažurirano: 23/09/2020 11:30
Partly Cloudy
Partly Cloudy
 Pravac vetra varies
Vetar: varies 2 km/h
Temperatura: 22°C
Tačka rose: 17°C
Vlažnost: 73%
Pritisak: 1016 hPa
Oblaci: Partly Cloudy
Vidljivost: 10 km
Cloud details: Few Clouds 488 m
Partly Cloudy 732 m
2020/09/23 09:30 LYPG 230930Z VRB01KT 9999 FEW016 SCT024 22/17 Q1016 NOSIG
LQSA - Sarajevo, Bosna i Hercegovina
Ažurirano: 23/09/2020 11:30
Few Clouds
Few Clouds
 Pravac vetra varies
Vetar: varies 2 km/h
Temperatura: 19°C
Tačka rose: 17°C
Vlažnost: 88%
Pritisak: 1013 hPa
Oblaci: Few Clouds
Vidljivost: 10 km
Cloud details: Few Clouds 1372 m
2020/09/23 09:30 LQSA 230930Z VRB01KT 9999 FEW045 19/17 Q1013 NOSIG
LDOS - Osijek, Hrvatksa
Ažurirano: 23/09/2020 11:30
Vedro
Vedro
 Pravac vetra JJZ
Vetar: JJZ 13 km/h
Temperatura: 24°C
Tačka rose: 13°C
Vlažnost: 50%
Pritisak: 1011 hPa
Pregled: Vedro
Vidljivost: greater than 10 km
2020/09/23 09:30 LDOS 230930Z 21007KT 170V250 CAVOK 24/13 Q1011